Time;durP1;ratioP1;P1;durP2;ratioP2;P2;SDS_P1;SDS_P2;PMS_P1;PMS_P2;Temp;Humidity;BMP_temperature;BMP_pressure;BME280_temperature;BME280_humidity;BME280_pressure;Samples;Min_cycle;Max_cycle;Signal;HPM_P1;HPM_P2
2022/11/25 00:00:05;;;;;;;;;;;2.10;99.90;;;;;;5090771;28;20123;-78
2022/11/25 00:02:30;;;;;;;53.55;25.75;;;2.00;99.90;;;;;;5089720;28;19985;-78
2022/11/25 00:04:56;;;;;;;;;;;2.00;99.90;;;;;;5089584;28;20032;-77
2022/11/25 00:07:21;;;;;;;55.20;27.15;;;1.90;99.90;;;;;;5089598;28;19908;-77
2022/11/25 00:09:47;;;;;;;;;;;1.80;99.90;;;;;;5090649;28;20031;-77
2022/11/25 00:12:12;;;;;;;55.92;23.70;;;1.80;99.90;;;;;;5089788;28;19904;-77
2022/11/25 00:14:38;;;;;;;;;;;1.70;99.90;;;;;;5090633;28;20028;-77
2022/11/25 00:17:03;;;;;;;51.80;22.38;;;1.80;99.90;;;;;;5089214;28;19953;-77
2022/11/25 00:19:29;;;;;;;;;;;1.90;99.90;;;;;;5089616;28;20115;-77
2022/11/25 00:21:55;;;;;;;60.30;25.63;;;2.00;99.90;;;;;;5090170;28;19904;-77
2022/11/25 00:24:20;;;;;;;;;;;2.10;99.90;;;;;;5091529;28;20028;-77
2022/11/25 00:26:46;;;;;;;59.70;23.65;;;2.10;99.90;;;;;;5089245;28;19971;-77
2022/11/25 00:29:12;;;;;;;;;;;2.10;99.90;;;;;;5091371;28;20016;-77
2022/11/25 00:31:39;;;;;;;55.05;25.00;;;2.10;99.90;;;;;;5091351;28;19904;-78
2022/11/25 00:34:06;;;;;;;50.78;24.20;;;2.00;99.90;;;;;;5089679;28;20036;-77
2022/11/25 00:36:34;;;;;;;64.55;27.10;;;1.80;99.90;;;;;;5090399;28;20051;-77
2022/11/25 00:39:02;;;;;;;51.55;24.45;;;1.80;99.90;;;;;;5091742;28;20043;-77
2022/11/25 00:47:00;;;;;;;53.20;23.85;;;1.50;99.90;;;;;;5089567;28;20034;-78
2022/11/25 00:49:26;;;;;;;63.10;24.58;;;1.50;99.90;;;;;;5089120;28;20028;-76
2022/11/25 00:51:52;;;;;;;51.38;24.38;;;1.40;99.90;;;;;;5087784;28;20478;-78
2022/11/25 00:54:17;;;;;;;;;;;1.40;99.90;;;;;;5088881;28;20024;-77
2022/11/25 00:56:43;;;;;;;50.00;22.02;;;1.40;99.90;;;;;;5087687;28;19971;-77
2022/11/25 00:59:08;;;;;;;;;;;1.30;99.90;;;;;;5088145;28;20068;-77
2022/11/25 01:01:35;;;;;;;51.92;23.27;;;1.30;99.90;;;;;;5088802;28;19908;-76
2022/11/25 01:04:00;;;;;;;55.35;25.15;;;1.20;99.90;;;;;;5088737;28;20036;-77
2022/11/25 01:06:26;;;;;;;;;;;1.20;99.90;;;;;;5088595;28;20031;-77
2022/11/25 01:08:52;;;;;;;65.82;28.55;;;1.10;99.90;;;;;;5089232;28;20645;-77
2022/11/25 01:11:18;;;;;;;;;;;1.10;99.90;;;;;;5088499;28;20119;-77
2022/11/25 01:13:44;;;;;;;67.37;28.07;;;1.20;99.90;;;;;;5088127;28;19915;-77
2022/11/25 01:16:21;;;;;;;119.32;28.73;;;1.30;99.90;;;;;;5088902;28;20258;-77
2022/11/25 01:18:47;;;;;;;217.75;32.63;;;1.40;99.90;;;;;;5088238;28;20081;-77
2022/11/25 01:21:24;;;;;;;343.08;32.75;;;1.50;99.90;;;;;;5088489;28;20071;-77
2022/11/25 01:23:51;;;;;;;145.20;32.88;;;1.60;99.90;;;;;;5088639;28;20040;-75
2022/11/25 01:26:19;;;;;;;407.77;46.25;;;1.60;99.90;;;;;;5090239;28;20035;-77
2022/11/25 01:28:45;;;;;;;137.25;34.53;;;1.60;99.90;;;;;;5087063;28;20157;-77
2022/11/25 01:31:13;;;;;;;;;;;1.60;99.90;;;;;;5087492;28;20878;-76
2022/11/25 01:33:39;;;;;;;91.05;34.42;;;1.60;99.90;;;;;;5088672;28;19968;-77
2022/11/25 01:36:08;;;;;;;82.57;34.28;;;1.60;99.90;;;;;;5087215;28;20031;-78
2022/11/25 01:38:34;;;;;;;94.40;35.63;;;1.60;99.90;;;;;;5087733;28;20502;-77
2022/11/25 01:41:01;;;;;;;87.70;34.30;;;1.60;99.90;;;;;;5088605;28;20526;-78
2022/11/25 01:43:28;;;;;;;86.60;35.67;;;1.60;99.90;;;;;;5088602;28;20115;-77
2022/11/25 01:46:07;;;;;;;82.22;33.92;;;1.70;99.90;;;;;;5089031;28;20468;-76
2022/11/25 01:48:50;;;;;;;86.28;37.80;;;1.80;99.90;;;;;;5087163;28;20047;-78
2022/11/25 01:51:25;;;;;;;88.38;37.83;;;1.80;99.90;;;;;;5087700;28;20020;-77
2022/11/25 01:53:51;;;;;;;109.95;46.70;;;1.80;99.90;;;;;;5088675;28;20270;-77
2022/11/25 01:56:18;;;;;;;118.85;52.42;;;1.80;99.90;;;;;;5087363;28;20036;-77
2022/11/25 01:58:46;;;;;;;105.80;46.80;;;1.80;99.90;;;;;;5089899;28;20020;-77
2022/11/25 02:01:13;;;;;;;93.88;42.28;;;1.80;99.90;;;;;;5088391;28;20031;-77
2022/11/25 02:03:43;;;;;;;96.47;40.90;;;1.80;99.90;;;;;;5087699;28;20063;-76
2022/11/25 02:06:23;;;;;;;88.85;37.05;;;1.90;99.90;;;;;;5089328;28;20038;-77
2022/11/25 02:08:54;;;;;;;84.47;38.17;;;2.00;99.90;;;;;;5088411;28;20031;-77
2022/11/25 02:11:23;;;;;;;83.78;36.75;;;2.00;99.90;;;;;;5089020;28;20028;-76
2022/11/25 02:13:50;;;;;;;66.97;33.05;;;2.10;99.90;;;;;;5088243;28;20550;-77
2022/11/25 02:16:16;;;;;;;67.57;33.08;;;2.10;99.90;;;;;;5088721;28;20511;-76
2022/11/25 02:18:41;;;;;;;;;;;2.10;99.90;;;;;;5089680;28;20028;-77
2022/11/25 02:21:08;;;;;;;84.45;35.78;;;2.10;99.90;;;;;;5089184;28;20406;-77
2022/11/25 02:24:03;;;;;;;83.93;36.83;;;2.20;99.90;;;;;;5091111;28;20047;-76
2022/11/25 02:26:29;;;;;;;61.50;26.80;;;2.20;99.90;;;;;;5094297;28;20080;-77
2022/11/25 02:28:56;;;;;;;50.22;21.67;;;2.20;99.90;;;;;;5093252;28;20496;-77
2022/11/25 02:31:22;;;;;;;42.10;19.83;;;2.30;99.90;;;;;;5093142;28;20576;-77
2022/11/25 02:33:48;;;;;;;;;;;2.30;99.90;;;;;;5094596;28;20451;-78
2022/11/25 02:36:16;;;;;;;38.88;18.58;;;2.30;99.90;;;;;;5095015;28;19904;-77
2022/11/25 02:38:52;;;;;;;45.00;20.08;;;2.30;99.90;;;;;;5095171;28;20388;-76
2022/11/25 02:41:44;;;;;;;56.53;24.83;;;2.30;99.90;;;;;;5093270;28;20144;-76
2022/11/25 02:44:10;;;;;;;49.42;22.05;;;2.50;99.90;;;;;;5093088;28;20070;-76
2022/11/25 02:46:35;;;;;;;;;;;2.50;99.90;;;;;;5094226;28;20488;-78
2022/11/25 02:49:02;;;;;;;45.58;20.73;;;2.60;99.90;;;;;;5090938;28;19911;-76
2022/11/25 02:51:30;;;;;;;40.85;19.88;;;2.70;99.90;;;;;;5093003;28;20128;-77
2022/11/25 02:53:56;;;;;;;43.95;21.38;;;2.70;99.90;;;;;;5091034;28;20035;-77
2022/11/25 02:56:24;;;;;;;44.47;18.65;;;2.80;99.90;;;;;;5091870;28;20055;-77
2022/11/25 02:58:50;;;;;;;41.25;20.65;;;2.80;99.90;;;;;;5094280;28;20032;-77
2022/11/25 03:01:16;;;;;;;;;;;2.80;99.90;;;;;;5093765;28;20545;-76
2022/11/25 03:03:41;;;;;;;47.15;21.05;;;2.80;99.90;;;;;;5095775;28;19968;-78
2022/11/25 03:06:07;;;;;;;;;;;2.80;99.90;;;;;;5095799;28;20388;-77
2022/11/25 03:08:33;;;;;;;43.30;21.88;;;2.80;99.90;;;;;;5090652;28;20288;-77
2022/11/25 03:10:59;;;;;;;;;;;2.80;99.90;;;;;;5091359;28;20113;-77
2022/11/25 03:13:24;;;;;;;38.08;19.42;;;2.80;99.90;;;;;;5089422;28;19958;-77
2022/11/25 03:15:50;;;;;;;;;;;2.80;99.90;;;;;;5089876;28;20588;-77
2022/11/25 03:18:15;;;;;;;42.45;21.98;;;2.70;99.90;;;;;;5089476;28;20003;-77
2022/11/25 03:20:41;;;;;;;;;;;2.90;99.90;;;;;;5090264;28;20031;-77
2022/11/25 03:23:07;;;;;;;48.35;22.80;;;2.90;99.90;;;;;;5090882;28;20300;-76
2022/11/25 03:25:33;;;;;;;;;;;3.00;99.90;;;;;;5091241;28;20024;-76
2022/11/25 03:27:59;;;;;;;47.93;22.67;;;3.10;99.90;;;;;;5091383;28;19911;-77
2022/11/25 03:30:26;;;;;;;;;;;3.10;99.90;;;;;;5091553;28;20032;-77
2022/11/25 03:32:51;;;;;;;51.42;24.70;;;3.10;99.90;;;;;;5090748;28;20379;-76
2022/11/25 03:35:17;;;;;;;;;;;3.10;99.90;;;;;;5090009;28;20036;-77
2022/11/25 03:37:43;;;;;;;47.47;22.20;;;3.10;99.90;;;;;;5090218;28;19916;-76
2022/11/25 03:40:11;;;;;;;47.40;21.38;;;3.10;99.90;;;;;;5090903;28;20504;-76
2022/11/25 03:42:37;;;;;;;43.78;22.17;;;3.10;99.90;;;;;;5090738;28;20283;-76
2022/11/25 03:45:03;;;;;;;;;;;3.10;99.90;;;;;;5091646;28;20040;-77
2022/11/25 03:47:29;;;;;;;44.10;21.75;;;3.10;99.90;;;;;;5089451;28;20013;-76
2022/11/25 03:49:54;;;;;;;;;;;3.10;99.90;;;;;;5089926;28;20135;-76
2022/11/25 03:52:20;;;;;;;47.67;22.17;;;3.20;99.90;;;;;;5089842;28;19979;-76
2022/11/25 03:54:46;;;;;;;;;;;3.20;99.90;;;;;;5092209;28;20035;-76
2022/11/25 03:57:11;;;;;;;47.58;23.02;;;3.20;99.90;;;;;;5091372;28;19908;-76
2022/11/25 03:59:37;;;;;;;;;;;3.20;99.90;;;;;;5092715;28;20124;-76
2022/11/25 04:02:02;;;;;;;44.13;20.70;;;3.20;99.90;;;;;;5090685;28;19992;-76
2022/11/25 04:04:28;;;;;;;;;;;3.20;99.90;;;;;;5092645;28;20032;-77
2022/11/25 04:06:53;;;;;;;39.55;19.80;;;3.10;99.90;;;;;;5089267;28;19906;-77
2022/11/25 04:09:19;;;;;;;;;;;3.00;99.90;;;;;;5090778;28;20445;-77
2022/11/25 04:14:29;;;;;;;38.88;19.13;;;2.90;99.90;;;;;;5092663;28;20553;-77
2022/11/25 04:16:54;;;;;;;;;;;2.90;99.90;;;;;;5092903;28;20032;-77
2022/11/25 04:19:20;;;;;;;43.50;20.90;;;2.90;99.90;;;;;;5090488;28;19991;-77
2022/11/25 04:21:46;;;;;;;;;;;2.80;99.90;;;;;;5092002;28;20499;-77
2022/11/25 04:24:11;;;;;;;51.17;25.83;;;2.80;99.90;;;;;;5092052;28;19916;-77
2022/11/25 04:26:37;;;;;;;;;;;2.80;99.90;;;;;;5093415;28;20032;-78
2022/11/25 04:29:02;;;;;;;36.03;17.92;;;2.70;99.90;;;;;;5090627;28;20368;-76
2022/11/25 04:31:28;;;;;;;;;;;2.60;99.90;;;;;;5090633;28;20808;-76
2022/11/25 04:33:57;;;;;;;31.85;15.93;;;2.60;99.90;;;;;;5088093;28;19904;-76
2022/11/25 04:36:22;;;;;;;31.95;16.40;;;2.50;99.90;;;;;;5088797;28;20530;-76
2022/11/25 04:38:48;;;;;;;;;;;2.40;99.90;;;;;;5093324;28;20065;-76
2022/11/25 04:41:14;;;;;;;33.22;16.38;;;2.30;99.90;;;;;;5090042;28;19926;-75
2022/11/25 04:43:39;;;;;;;;;;;2.10;99.90;;;;;;5088371;28;20044;-77
2022/11/25 04:46:05;;;;;;;35.53;16.25;;;2.10;99.90;;;;;;5087798;28;19908;-76
2022/11/25 04:48:31;;;;;;;;;;;2.00;99.90;;;;;;5090536;28;20028;-76
2022/11/25 04:50:57;;;;;;;35.45;16.42;;;2.00;99.90;;;;;;5089064;28;19908;-76
2022/11/25 04:53:22;;;;;;;;;;;1.90;99.90;;;;;;5090423;28;20032;-76
2022/11/25 04:55:48;;;;;;;32.75;16.23;;;1.90;99.90;;;;;;5088670;28;19908;-76
2022/11/25 04:59:38;;;;;;;;;;;1.90;99.90;;;;;;5088767;28;20035;-76
2022/11/25 05:00:59;;;;;;;35.35;17.08;;;1.90;99.90;;;;;;5089907;28;19910;-75
2022/11/25 05:03:25;;;;;;;;;;;1.90;99.90;;;;;;5090951;28;20112;-77
2022/11/25 05:05:50;;;;;;;43.30;20.02;;;1.90;99.90;;;;;;5089594;28;19915;-76
2022/11/25 05:08:16;;;;;;;;;;;2.00;99.90;;;;;;5090572;28;20064;-76
2022/11/25 05:10:41;;;;;;;35.08;19.45;;;2.00;99.90;;;;;;5090264;28;20376;-76
2022/11/25 05:13:07;;;;;;;;;;;2.00;99.90;;;;;;5091135;28;20020;-76
2022/11/25 05:15:32;;;;;;;39.58;21.38;;;2.00;99.90;;;;;;5089397;28;19912;-75
2022/11/25 05:17:58;;;;;;;;;;;2.10;99.90;;;;;;5091634;28;20203;-77
2022/11/25 05:20:23;;;;;;;40.20;19.98;;;2.10;99.90;;;;;;5092672;28;19908;-77
2022/11/25 05:22:49;;;;;;;;;;;2.10;99.90;;;;;;5092995;28;20197;-77
2022/11/25 05:25:15;;;;;;;38.65;20.05;;;2.10;99.90;;;;;;5090537;28;19908;-77
2022/11/25 05:27:41;;;;;;;40.38;20.55;;;2.10;99.90;;;;;;5093256;28;20027;-77
2022/11/25 05:30:07;;;;;;;;;;;2.20;99.90;;;;;;5093272;28;20032;-77
2022/11/25 05:32:32;;;;;;;37.53;18.20;;;2.20;99.90;;;;;;5090658;28;20319;-76
2022/11/25 05:34:58;;;;;;;;;;;2.20;99.90;;;;;;5088798;28;20495;-76
2022/11/25 05:37:23;;;;;;;48.58;27.58;;;2.30;99.90;;;;;;5087770;28;19973;-76
2022/11/25 05:39:49;;;;;;;;;;;2.30;99.90;;;;;;5086766;28;20440;-76
2022/11/25 05:42:15;;;;;;;66.38;40.35;;;2.20;99.90;;;;;;5085666;28;20795;-76
2022/11/25 05:44:40;;;;;;;;;;;2.20;99.90;;;;;;5087016;28;20453;-76
2022/11/25 05:47:06;;;;;;;50.25;23.73;;;2.20;99.90;;;;;;5087904;28;20373;-76
2022/11/25 05:49:32;;;;;;;;;;;2.20;99.90;;;;;;5087452;28;20033;-76
2022/11/25 05:51:57;;;;;;;47.47;24.77;;;2.30;99.90;;;;;;5088414;28;19911;-76
2022/11/25 05:54:23;;;;;;;;;;;2.30;99.90;;;;;;5087452;28;20051;-76
2022/11/25 05:56:48;;;;;;;50.03;24.70;;;2.30;99.90;;;;;;5087723;28;19912;-76
2022/11/25 05:59:14;;;;;;;;;;;2.40;99.90;;;;;;5088863;28;20077;-76
2022/11/25 06:01:40;;;;;;;45.35;21.85;;;2.40;99.90;;;;;;5093214;28;19908;-76
2022/11/25 06:04:05;;;;;;;;;;;2.40;99.90;;;;;;5093751;28;20040;-76
2022/11/25 06:06:31;;;;;;;43.35;23.95;;;2.40;99.90;;;;;;5091207;28;20367;-75
2022/11/25 06:08:57;;;;;;;45.85;25.52;;;2.40;99.90;;;;;;5093022;28;20028;-76
2022/11/25 06:11:24;;;;;;;;;;;2.40;99.90;;;;;;5092896;28;20028;-77
2022/11/25 06:13:50;;;;;;;47.63;25.00;;;2.40;99.90;;;;;;5090872;28;20189;-76
2022/11/25 06:16:17;;;;;;;;;;;2.40;99.90;;;;;;5094263;28;20115;-75
2022/11/25 06:18:43;;;;;;;66.47;35.08;;;2.30;99.90;;;;;;5090534;28;19934;-76
2022/11/25 06:21:09;;;;;;;;;;;2.30;99.90;;;;;;5091707;28;20040;-75
2022/11/25 06:23:36;;;;;;;59.45;31.35;;;2.30;99.90;;;;;;5090199;28;19923;-75
2022/11/25 06:26:06;;;;;;;62.97;33.05;;;2.40;99.90;;;;;;5089709;28;20043;-76
2022/11/25 06:28:32;;;;;;;58.05;30.70;;;2.40;99.90;;;;;;5088849;28;20032;-76
2022/11/25 06:31:05;;;;;;;;;;;2.40;99.90;;;;;;5090943;28;20021;-75
2022/11/25 06:33:31;;;;;;;52.10;27.73;;;2.40;99.90;;;;;;5089588;28;20057;-76
2022/11/25 06:35:57;;;;;;;;;;;2.50;99.90;;;;;;5090394;28;20088;-75
2022/11/25 06:38:22;;;;;;;61.28;27.17;;;2.60;99.90;;;;;;5091016;28;19919;-76
2022/11/25 06:40:48;;;;;;;;;;;2.60;99.90;;;;;;5089371;28;20040;-76
2022/11/25 06:43:13;;;;;;;54.15;24.80;;;2.70;99.90;;;;;;5091112;28;19916;-75
2022/11/25 06:45:39;;;;;;;;;;;2.70;99.90;;;;;;5088987;28;20024;-75
2022/11/25 06:48:04;;;;;;;73.57;34.05;;;2.80;99.90;;;;;;5089465;28;20280;-75
2022/11/25 06:50:30;;;;;;;;;;;2.90;99.90;;;;;;5091764;28;20052;-75
2022/11/25 06:52:56;;;;;;;90.57;44.40;;;2.80;99.90;;;;;;5091350;28;20377;-75
2022/11/25 06:55:21;;;;;;;;;;;2.90;99.90;;;;;;5090307;28;20511;-75
2022/11/25 06:57:47;;;;;;;68.72;31.98;;;2.90;99.90;;;;;;5090621;28;19908;-76
2022/11/25 07:00:13;;;;;;;;;;;3.00;99.90;;;;;;5090539;28;20028;-75
2022/11/25 07:02:38;;;;;;;66.82;31.67;;;3.10;99.90;;;;;;5091255;28;19912;-76
2022/11/25 07:05:04;;;;;;;;;;;3.20;99.90;;;;;;5091072;28;20385;-76
2022/11/25 07:07:29;;;;;;;74.28;33.20;;;3.20;99.90;;;;;;5091863;28;19915;-75
2022/11/25 07:09:55;;;;;;;;;;;3.20;99.90;;;;;;5091099;28;20042;-74
2022/11/25 07:12:20;;;;;;;61.45;30.20;;;3.20;99.90;;;;;;5089709;28;20295;-75
2022/11/25 07:14:48;;;;;;;;;;;3.30;99.90;;;;;;5090494;28;20105;-75
2022/11/25 07:17:14;;;;;;;52.22;27.92;;;3.30;99.90;;;;;;5092264;28;20608;-75
2022/11/25 07:19:40;;;;;;;;;;;3.30;99.90;;;;;;5092757;28;20073;-75
2022/11/25 07:22:05;;;;;;;47.25;25.05;;;3.40;99.90;;;;;;5090381;28;19915;-76
2022/11/25 07:24:32;;;;;;;;;;;3.40;99.90;;;;;;5090175;28;20075;-75
2022/11/25 07:26:58;;;;;;;53.80;29.50;;;3.30;99.90;;;;;;5092698;28;20446;-75
2022/11/25 07:29:23;;;;;;;;;;;3.40;99.90;;;;;;5092758;28;20020;-75
2022/11/25 07:31:49;;;;;;;46.85;24.65;;;3.50;99.90;;;;;;5091785;28;20314;-75
2022/11/25 07:34:19;;;;;;;;;;;3.50;99.90;;;;;;5095108;28;20036;-75
2022/11/25 07:36:47;;;;;;;75.15;37.70;;;3.60;99.90;;;;;;5093162;28;20006;-76
2022/11/25 07:39:15;;;;;;;52.85;27.70;;;3.70;99.90;;;;;;5093152;28;20029;-75
2022/11/25 07:41:41;;;;;;;42.50;24.63;;;3.70;99.90;;;;;;5091370;28;20044;-75
2022/11/25 07:44:09;;;;;;;47.40;23.90;;;3.80;99.90;;;;;;5091977;28;20036;-74
2022/11/25 07:46:38;;;;;;;45.67;23.42;;;3.80;99.90;;;;;;5093078;28;20028;-75
2022/11/25 07:49:07;;;;;;;43.80;23.27;;;3.70;99.90;;;;;;5092287;28;20032;-76
2022/11/25 07:51:54;;;;;;;41.40;21.73;;;3.80;99.90;;;;;;5095597;28;20053;-74
2022/11/25 07:54:20;;;;;;;;;;;3.80;99.90;;;;;;5093358;28;20069;-75
2022/11/25 07:56:47;;;;;;;38.13;19.60;;;4.00;99.90;;;;;;5092459;28;19961;-75
2022/11/25 07:59:16;;;;;;;34.35;18.50;;;4.00;99.90;;;;;;5089968;28;20288;-76
2022/11/25 08:01:42;;;;;;;38.10;19.63;;;4.10;99.90;;;;;;5087744;28;20024;-75
2022/11/25 08:04:10;;;;;;;40.42;20.35;;;4.10;99.90;;;;;;5088878;28;20051;-76
2022/11/25 08:06:41;;;;;;;34.67;19.55;;;4.20;99.90;;;;;;5070181;28;20024;-77
2022/11/25 08:09:08;;;;;;;43.72;23.00;;;4.40;99.90;;;;;;5086888;28;20032;-76
2022/11/25 08:11:34;;;;;;;38.65;20.20;;;4.50;99.90;;;;;;5088638;28;20031;-75
2022/11/25 08:13:59;;;;;;;;;;;4.50;99.90;;;;;;5088421;28;20392;-76
2022/11/25 08:16:27;;;;;;;37.03;19.08;;;4.50;99.90;;;;;;5086515;28;19914;-77
2022/11/25 08:18:53;;;;;;;35.75;19.73;;;4.60;99.90;;;;;;5088136;28;20034;-76
2022/11/25 08:21:20;;;;;;;33.55;18.17;;;4.60;99.90;;;;;;5087955;28;20031;-76
2022/11/25 08:23:51;;;;;;;;;;;4.60;99.90;;;;;;5087134;28;20383;-76
2022/11/25 08:26:29;;;;;;;37.58;18.15;;;4.70;99.90;;;;;;5087184;28;19908;-75
2022/11/25 08:28:56;;;;;;;37.38;19.08;;;4.70;99.90;;;;;;5087319;28;20024;-75
2022/11/25 08:31:26;;;;;;;36.83;19.20;;;4.70;99.90;;;;;;5088398;28;20111;-76
2022/11/25 08:33:52;;;;;;;33.42;18.52;;;4.80;99.90;;;;;;5086935;28;20550;-76
2022/11/25 08:36:18;;;;;;;42.33;23.90;;;4.80;99.90;;;;;;5087402;28;20227;-76
2022/11/25 08:38:45;;;;;;;;;;;4.90;99.90;;;;;;5088784;28;20020;-76
2022/11/25 08:41:20;;;;;;;40.03;19.30;;;4.80;99.90;;;;;;5086376;28;21053;-75
2022/11/25 08:43:46;;;;;;;44.25;20.50;;;4.90;99.90;;;;;;5087755;28;20052;-76
2022/11/25 08:46:13;;;;;;;;;;;4.90;99.90;;;;;;5086433;28;20406;-77
2022/11/25 08:48:39;;;;;;;37.83;19.10;;;4.80;99.90;;;;;;5088891;28;19908;-76
2022/11/25 08:51:09;;;;;;;;;;;4.80;99.90;;;;;;5088070;28;20032;-76
2022/11/25 08:53:35;;;;;;;37.17;20.92;;;4.80;99.90;;;;;;5088619;28;19908;-76
2022/11/25 08:56:01;;;;;;;39.65;20.10;;;4.80;99.90;;;;;;5088021;28;20401;-76
2022/11/25 08:58:26;;;;;;;;;;;4.80;99.90;;;;;;5088726;28;20032;-76
2022/11/25 09:00:52;;;;;;;36.90;19.10;;;4.70;99.90;;;;;;5086933;28;19915;-76
2022/11/25 09:03:17;;;;;;;;;;;4.70;99.90;;;;;;5089825;28;20032;-76
2022/11/25 09:05:43;;;;;;;38.67;21.08;;;4.80;99.90;;;;;;5088878;28;20523;-76
2022/11/25 09:08:09;;;;;;;;;;;4.70;99.90;;;;;;5089207;28;20024;-75
2022/11/25 09:10:36;;;;;;;46.90;20.92;;;4.70;99.90;;;;;;5088379;28;19916;-76
2022/11/25 09:13:02;;;;;;;40.42;21.08;;;4.70;99.90;;;;;;5087559;28;20086;-76
2022/11/25 09:15:28;;;;;;;;;;;4.70;99.90;;;;;;5089604;28;20020;-75
2022/11/25 09:18:05;;;;;;;38.88;18.73;;;4.80;99.90;;;;;;5088696;28;19908;-77
2022/11/25 09:20:32;;;;;;;34.97;17.77;;;4.90;99.90;;;;;;5090285;28;20035;-76
2022/11/25 09:22:59;;;;;;;38.38;20.13;;;4.90;99.90;;;;;;5090772;28;20031;-77
2022/11/25 09:25:26;;;;;;;36.45;18.70;;;4.90;99.90;;;;;;5088318;28;20382;-76
2022/11/25 09:27:52;;;;;;;37.70;19.50;;;4.90;99.90;;;;;;5092498;28;20020;-77
2022/11/25 09:30:17;;;;;;;;;;;4.80;99.90;;;;;;5093752;28;20036;-76
2022/11/25 09:32:43;;;;;;;38.80;20.65;;;4.70;99.90;;;;;;5086873;28;19949;-77
2022/11/25 09:35:09;;;;;;;;;;;4.50;99.90;;;;;;5091567;28;20036;-76
2022/11/25 09:37:34;;;;;;;36.13;18.27;;;4.60;99.90;;;;;;5091775;28;19904;-77
2022/11/25 09:40:00;;;;;;;;;;;4.70;99.90;;;;;;5091825;28;20400;-77
2022/11/25 09:46:40;;;;;;;44.70;21.42;;;5.10;99.90;;;;;;5094270;28;20047;-76
2022/11/25 09:49:20;;;;;;;40.35;21.30;;;5.40;99.90;;;;;;5089021;28;20419;-75
2022/11/25 09:52:07;;;;;;;35.03;19.48;;;5.70;99.90;;;;;;5094211;28;20032;-76
2022/11/25 09:54:34;;;;;;;;;;;5.80;99.90;;;;;;5092735;28;20521;-75
2022/11/25 09:57:19;;;;;;;37.13;19.80;;;5.80;99.90;;;;;;5094362;28;19908;-77
2022/11/25 10:00:09;;;;;;;38.92;20.67;;;5.80;99.90;;;;;;5095660;28;20020;-77
2022/11/25 10:03:04;;;;;;;43.90;23.67;;;5.80;99.90;;;;;;5095532;28;20047;-76
2022/11/25 10:05:56;;;;;;;37.15;20.63;;;5.90;99.90;;;;;;5096089;28;20442;-76
2022/11/25 10:08:32;;;;;;;38.00;21.95;;;6.00;99.90;;;;;;5093890;28;20031;-76
2022/11/25 10:11:06;;;;;;;39.30;21.05;;;6.00;99.90;;;;;;5095743;28;20020;-76
2022/11/25 10:14:10;;;;;;;37.75;21.40;;;6.10;99.90;;;;;;5093104;28;20100;-76
2022/11/25 10:16:50;;;;;;;34.85;21.95;;;5.90;99.90;;;;;;5093721;28;20054;-76
2022/11/25 10:19:41;;;;;;;42.08;23.88;;;5.80;99.90;;;;;;5095852;28;20111;-76
2022/11/25 10:22:26;;;;;;;47.05;26.70;;;5.70;99.90;;;;;;5093358;28;20396;-76
2022/11/25 10:25:20;;;;;;;46.88;26.50;;;5.70;99.90;;;;;;5092296;28;20040;-76
2022/11/25 10:27:58;;;;;;;41.13;21.90;;;5.70;99.90;;;;;;5090245;28;20039;-77
2022/11/25 10:30:48;;;;;;;40.28;21.33;;;5.70;99.90;;;;;;5090888;28;20068;-77
2022/11/25 10:33:43;;;;;;;42.42;25.90;;;5.60;99.90;;;;;;5090641;28;20039;-77
2022/11/25 10:36:20;;;;;;;48.40;27.42;;;5.60;99.90;;;;;;5091963;28;20039;-77
2022/11/25 10:39:03;;;;;;;48.55;29.15;;;5.60;99.90;;;;;;5091760;28;20020;-76
2022/11/25 10:41:41;;;;;;;63.55;36.42;;;5.60;99.90;;;;;;5091000;28;20415;-76
2022/11/25 10:44:26;;;;;;;53.15;31.60;;;5.60;99.90;;;;;;5090550;28;20518;-76
2022/11/25 10:46:54;;;;;;;54.78;29.40;;;5.60;99.90;;;;;;5090924;28;20035;-76
2022/11/25 10:50:02;;;;;;;47.55;29.80;;;5.50;99.90;;;;;;5090835;28;20061;-76
2022/11/25 10:52:32;;;;;;;54.25;32.90;;;5.50;99.90;;;;;;5070897;28;20040;-76
2022/11/25 10:55:13;;;;;;;68.45;34.97;;;5.50;99.90;;;;;;5092790;28;20024;-77
2022/11/25 10:57:39;;;;;;;47.85;28.42;;;5.50;99.90;;;;;;5093351;28;20577;-77
2022/11/25 11:00:05;;;;;;;;;;;5.50;99.90;;;;;;5092942;28;20024;-77
2022/11/25 11:02:34;;;;;;;48.70;26.70;;;5.40;99.90;;;;;;5091031;28;19915;-76
2022/11/25 11:05:24;;;;;;;55.80;29.08;;;5.50;99.90;;;;;;5095571;28;20067;-78
2022/11/25 11:08:12;;;;;;;48.05;27.02;;;5.50;99.90;;;;;;5089024;28;20445;-76
2022/11/25 11:10:38;;;;;;;48.17;26.48;;;5.60;99.90;;;;;;5092523;28;20036;-77
2022/11/25 11:13:19;;;;;;;50.05;28.42;;;5.50;99.90;;;;;;5089653;28;20032;-77
2022/11/25 11:15:46;;;;;;;51.10;27.08;;;5.40;99.90;;;;;;5090452;28;20020;-77
2022/11/25 11:18:40;;;;;;;48.40;25.80;;;5.30;99.90;;;;;;5089386;28;20039;-76
2022/11/25 11:21:20;;;;;;;49.33;25.88;;;5.20;99.90;;;;;;5089482;28;20496;-77
2022/11/25 11:23:51;;;;;;;73.05;34.80;;;5.10;99.90;;;;;;5089687;28;20036;-77
2022/11/25 11:26:32;;;;;;;51.40;28.20;;;5.20;99.90;;;;;;5089645;28;20028;-76
2022/11/25 11:28:57;;;;;;;48.35;27.08;;;5.10;99.90;;;;;;5088469;28;20054;-77
2022/11/25 11:31:26;;;;;;;;;;;5.10;99.90;;;;;;5088965;28;20028;-77
2022/11/25 11:33:51;;;;;;;57.72;30.35;;;5.00;99.90;;;;;;5088428;28;19959;-77
2022/11/25 11:36:31;;;;;;;;;;;5.00;99.90;;;;;;5088554;28;20078;-77
2022/11/25 11:39:12;;;;;;;50.83;24.90;;;4.90;99.90;;;;;;5089763;28;19914;-76
2022/11/25 11:41:48;;;;;;;49.92;26.58;;;5.00;99.90;;;;;;5089760;28;20048;-77
2022/11/25 11:44:28;;;;;;;65.32;30.42;;;4.90;99.90;;;;;;5087962;28;20047;-77
2022/11/25 11:47:09;;;;;;;63.08;30.15;;;4.80;99.90;;;;;;5090742;28;20043;-77
2022/11/25 11:50:07;;;;;;;102.28;56.85;;;4.90;99.90;;;;;;5088299;28;20024;-77
2022/11/25 11:52:55;;;;;;;121.03;64.03;;;4.90;99.90;;;;;;5088319;28;20028;-77
2022/11/25 11:55:39;;;;;;;85.72;45.47;;;4.90;99.90;;;;;;5085316;28;20036;-77
2022/11/25 11:58:39;;;;;;;61.45;32.45;;;5.00;99.90;;;;;;5087571;28;20051;-77
2022/11/25 12:01:26;;;;;;;52.45;26.85;;;5.00;99.90;;;;;;5090084;28;20519;-77
2022/11/25 12:04:06;;;;;;;69.65;32.22;;;5.00;99.90;;;;;;5088981;28;20067;-77
2022/11/25 12:06:36;;;;;;;67.82;35.08;;;5.00;99.90;;;;;;5089797;28;20028;-77
2022/11/25 12:09:12;;;;;;;74.47;34.92;;;5.10;99.90;;;;;;5089183;28;20093;-77
2022/11/25 12:11:44;;;;;;;66.60;31.38;;;5.10;99.90;;;;;;5088591;28;20062;-77
2022/11/25 12:14:42;;;;;;;53.72;28.27;;;5.30;99.90;;;;;;5088686;28;20085;-77
2022/11/25 12:17:34;;;;;;;66.80;34.42;;;5.20;99.90;;;;;;5089072;28;20020;-77
2022/11/25 12:20:06;;;;;;;74.70;36.83;;;5.20;99.90;;;;;;5089448;28;20028;-77
2022/11/25 12:22:49;;;;;;;72.20;31.55;;;5.20;99.90;;;;;;5091993;28;20032;-77
2022/11/25 12:25:23;;;;;;;62.95;32.10;;;5.20;99.90;;;;;;5089184;28;20035;-77
2022/11/25 12:27:51;;;;;;;65.13;34.25;;;5.10;99.90;;;;;;5091241;28;20111;-76
2022/11/25 12:30:18;;;;;;;77.60;41.75;;;5.00;99.90;;;;;;5088649;28;20031;-77
2022/11/25 12:33:09;;;;;;;79.93;44.88;;;5.00;99.90;;;;;;5090907;28;20490;-77
2022/11/25 12:35:42;;;;;;;85.70;45.60;;;5.00;99.90;;;;;;5091127;28;20028;-77
2022/11/25 12:38:10;;;;;;;69.72;35.38;;;5.00;99.90;;;;;;5090888;28;20055;-77
2022/11/25 12:40:52;;;;;;;69.07;36.08;;;5.00;99.90;;;;;;5091340;28;20048;-77
2022/11/25 12:43:31;;;;;;;75.50;35.33;;;5.00;99.90;;;;;;5089466;28;20036;-77
2022/11/25 12:46:17;;;;;;;53.20;26.75;;;4.90;99.90;;;;;;5090407;28;20040;-77
2022/11/25 12:48:44;;;;;;;66.53;29.40;;;4.80;99.90;;;;;;5086728;28;20056;-77
2022/11/25 12:51:28;;;;;;;;;;;4.70;99.90;;;;;;5086543;28;20028;-77
2022/11/25 12:54:24;;;;;;;54.03;25.27;;;4.70;99.90;;;;;;5088356;28;19996;-77
2022/11/25 12:57:19;;;;;;;59.95;26.23;;;4.60;99.90;;;;;;5077580;28;20035;-77
2022/11/25 13:00:10;;;;;;;76.38;26.05;;;4.50;99.90;;;;;;5086564;28;20026;-77
2022/11/25 13:02:54;;;;;;;58.97;27.30;;;4.50;99.90;;;;;;5086919;28;20032;-77
2022/11/25 13:05:23;;;;;;;160.45;29.85;;;4.50;99.90;;;;;;5088043;28;20519;-77
2022/11/25 13:07:55;;;;;;;56.70;24.10;;;4.40;99.90;;;;;;5086208;28;20039;-77
2022/11/25 13:10:31;;;;;;;68.22;25.27;;;4.30;99.90;;;;;;5088556;28;20031;-77
2022/11/25 13:13:09;;;;;;;63.33;27.35;;;4.20;99.90;;;;;;5087714;28;20043;-77
2022/11/25 13:15:41;;;;;;;50.13;23.35;;;4.20;99.90;;;;;;5088377;28;20024;-77
2022/11/25 13:18:12;;;;;;;52.78;25.15;;;4.20;99.90;;;;;;5088264;28;20028;-77
2022/11/25 13:20:55;;;;;;;95.82;48.10;;;4.20;99.90;;;;;;5088595;28;20636;-77
2022/11/25 13:23:24;;;;;;;83.95;30.45;;;4.20;99.90;;;;;;5087863;28;20497;-77
2022/11/25 13:25:51;;;;;;;65.13;30.15;;;4.20;99.90;;;;;;5088066;28;20447;-77
2022/11/25 13:28:29;;;;;;;104.55;30.77;;;4.20;99.90;;;;;;5086851;28;20036;-77
2022/11/25 13:31:15;;;;;;;65.05;29.52;;;4.20;99.90;;;;;;5087343;28;20388;-77